Agawam, Massachusetts
Current Conditions -  °F | °C
As of 9:53 PM on Friday 31 Oct 2014 (Local Time) from KBAF Reporting Station
Overcast Overcast  
Wind Chill: 42°   Ceiling: 4700
Heat Index: 46°   Visibility: 10mi
Dew Point: 41°   Wind: 7mph
Humidity: 83%   Direction: 350°N
Pressure: 29.98"   Gusts: NA
Location:  42.07°N, 72.61°W
Report Text: KBAF 010153Z AUTO 35006KT 10SM OVC047 08/05 A2998 RMK AO2 RAE51 SLP156 P0002 T00780050
Loading
Personal Weather Stations






























Interactive Weather Map
Tropical Storm Tracking
New forecast layout! Learn more

10-Day Weather Forecast

Advertisements
Track Severe Weather on mobile